Time;durP1;ratioP1;P1;durP2;ratioP2;P2;SDS_P1;SDS_P2;PMS_P1;PMS_P2;Temp;Humidity;BMP_temperature;BMP_pressure;BME280_temperature;BME280_humidity;BME280_pressure;Samples;Min_cycle;Max_cycle;Signal;HPM_P1;HPM_P2
2022/05/25 00:01:22;;;;;;;1.87;0.90;;;18.20;1.00;;;;;;5050268;28;21031;-58
2022/05/25 00:03:48;;;;;;;1.23;0.80;;;18.20;1.00;;;;;;5047884;28;20512;-58
2022/05/25 00:06:26;;;;;;;2.00;1.20;;;18.20;1.00;;;;;;5048938;28;20441;-59
2022/05/25 00:08:52;;;;;;;2.77;1.00;;;18.20;1.00;;;;;;5050842;28;20270;-58
2022/05/25 00:11:21;;;;;;;2.63;0.83;;;18.20;1.00;;;;;;5056867;28;21053;-57
2022/05/25 00:13:46;;;;;;;1.73;0.70;;;18.20;1.00;;;;;;5050520;28;20200;-56
2022/05/25 00:16:16;;;;;;;1.83;1.30;;;18.10;1.00;;;;;;5049030;28;20831;-58
2022/05/25 00:19:58;;;;;;;1.27;0.80;;;18.10;1.00;;;;;;5049906;28;20659;-58
2022/05/25 00:21:27;;;;;;;3.37;0.87;;;18.10;1.00;;;;;;5049020;28;20473;-56
2022/05/25 00:23:52;;;;;;;1.60;0.80;;;18.00;1.00;;;;;;5054869;28;20449;-57
2022/05/25 00:26:18;;;;;;;0.80;0.70;;;17.90;1.00;;;;;;5049731;28;20209;-57
2022/05/25 00:28:44;;;;;;;1.23;0.90;;;17.80;1.00;;;;;;5048163;28;20188;-57
2022/05/25 00:31:22;;;;;;;1.70;0.80;;;17.80;1.00;;;;;;5045814;28;20192;-56
2022/05/25 00:33:48;;;;;;;0.90;0.90;;;;;;;;;;5051991;28;20663;-58
2022/05/25 00:36:36;;;;;;;1.87;1.20;;;17.80;1.00;;;;;;5042669;28;20425;-58
2022/05/25 00:39:04;;;;;;;2.50;1.27;;;17.60;1.00;;;;;;5050820;28;20492;-57
2022/05/25 00:41:41;;;;;;;3.63;1.57;;;17.70;1.00;;;;;;5051190;28;20458;-58
2022/05/25 00:44:08;;;;;;;3.10;1.20;;;17.70;1.00;;;;;;5048724;28;20541;-57
2022/05/25 00:46:35;;;;;;;1.33;1.23;;;17.60;1.00;;;;;;5047793;28;20437;-56
2022/05/25 00:49:26;;;;;;;4.90;1.43;;;17.60;1.00;;;;;;5049662;28;20532;-56
2022/05/25 00:52:00;;;;;;;1.83;1.33;;;17.70;1.00;;;;;;5046473;28;20436;-57
2022/05/25 00:54:37;;;;;;;2.23;1.20;;;17.50;1.00;;;;;;5047214;28;20449;-58
2022/05/25 00:57:09;;;;;;;2.50;1.90;;;17.50;1.00;;;;;;5052604;28;20499;-56
2022/05/25 00:59:44;;;;;;;1.23;1.13;;;17.60;1.00;;;;;;5059431;28;20941;-57
2022/05/25 01:02:09;;;;;;;2.20;1.27;;;17.50;1.00;;;;;;5047030;28;20445;-57
2022/05/25 01:04:35;;;;;;;2.30;1.40;;;17.40;1.00;;;;;;5049350;28;20469;-57
2022/05/25 01:07:01;;;;;;;3.27;1.63;;;;;;;;;;5047895;28;20657;-58
2022/05/25 01:09:51;;;;;;;1.40;1.30;;;17.30;1.00;;;;;;5049005;28;20188;-56
2022/05/25 01:12:28;;;;;;;3.70;1.73;;;17.20;1.00;;;;;;5050055;28;20443;-57
2022/05/25 01:15:12;;;;;;;1.53;1.40;;;17.20;1.00;;;;;;5048346;28;20467;-57
2022/05/25 01:18:11;;;;;;;2.40;1.70;;;17.10;1.00;;;;;;5051978;28;20454;-58
2022/05/25 01:20:56;;;;;;;2.90;1.80;;;17.20;1.00;;;;;;5060567;28;20417;-57
2022/05/25 01:23:22;;;;;;;2.50;2.20;;;17.30;1.00;;;;;;5052351;28;20572;-57
2022/05/25 01:26:01;;;;;;;3.30;2.13;;;17.20;1.00;;;;;;5051562;28;20525;-56
2022/05/25 01:28:59;;;;;;;2.47;1.63;;;17.10;1.00;;;;;;5055116;28;20254;-58
2022/05/25 01:31:49;;;;;;;4.63;1.77;;;17.10;1.00;;;;;;5052340;28;20427;-57
2022/05/25 01:34:19;;;;;;;5.57;1.63;;;17.00;1.00;;;;;;5051309;28;20456;-57
2022/05/25 01:37:14;;;;;;;3.07;1.87;;;17.00;1.00;;;;;;5053605;28;20446;-57
2022/05/25 01:39:53;;;;;;;3.70;1.97;;;17.10;1.00;;;;;;5053295;28;20937;-57
2022/05/25 01:42:29;;;;;;;2.10;1.40;;;17.10;1.00;;;;;;5062561;28;20450;-57
2022/05/25 01:44:59;;;;;;;2.30;1.50;;;17.10;1.00;;;;;;5051898;28;20473;-59
2022/05/25 01:47:27;;;;;;;1.70;1.30;;;17.00;1.00;;;;;;5051696;28;20444;-57
2022/05/25 01:50:07;;;;;;;1.80;1.70;;;16.90;1.00;;;;;;5044711;28;20438;-58
2022/05/25 01:52:41;;;;;;;1.40;1.30;;;16.80;1.00;;;;;;5049886;28;20456;-58
2022/05/25 01:55:12;;;;;;;2.10;1.57;;;16.90;1.00;;;;;;5053078;28;20445;-56
2022/05/25 01:57:44;;;;;;;2.50;1.60;;;16.80;1.00;;;;;;5052938;28;20450;-58
2022/05/25 02:00:25;;;;;;;1.70;1.60;;;16.80;1.00;;;;;;5051465;28;20971;-57
2022/05/25 02:05:40;;;;;;;2.83;1.40;;;16.80;1.00;;;;;;5049545;28;20501;-56
2022/05/25 02:08:16;;;;;;;1.87;1.40;;;16.80;1.00;;;;;;5053871;28;20430;-59
2022/05/25 02:10:46;;;;;;;2.80;1.50;;;16.80;1.00;;;;;;5052549;28;20446;-57
2022/05/25 02:13:26;;;;;;;1.90;1.70;;;16.70;1.00;;;;;;5052037;28;21055;-57
2022/05/25 02:16:30;;;;;;;2.83;1.57;;;16.80;1.00;;;;;;5050868;28;20439;-57
2022/05/25 02:19:08;;;;;;;3.13;1.70;;;16.80;1.00;;;;;;5028268;28;20429;-58
2022/05/25 02:21:49;;;;;;;2.63;1.50;;;16.80;1.00;;;;;;5048259;28;20453;-57
2022/05/25 02:24:38;;;;;;;2.00;1.60;;;16.80;1.00;;;;;;5050272;28;20774;-56
2022/05/25 02:27:15;;;;;;;2.07;1.70;;;16.80;1.00;;;;;;5061390;28;20472;-56
2022/05/25 02:29:45;;;;;;;2.33;1.60;;;16.80;1.00;;;;;;5051859;28;20442;-57
2022/05/25 02:32:37;;;;;;;1.87;1.77;;;16.80;1.00;;;;;;5052489;28;20451;-57
2022/05/25 02:35:05;;;;;;;2.40;1.60;;;16.80;1.00;;;;;;5046319;28;20513;-57
2022/05/25 02:37:32;;;;;;;1.80;1.60;;;16.70;1.00;;;;;;5050729;28;20435;-57
2022/05/25 02:39:59;;;;;;;2.63;2.13;;;16.70;1.00;;;;;;5048524;28;21240;-57
2022/05/25 02:42:25;;;;;;;2.10;1.90;;;16.70;1.00;;;;;;5051401;28;20546;-56
2022/05/25 02:44:51;;;;;;;2.73;1.50;;;16.70;1.00;;;;;;5050131;28;20573;-58
2022/05/25 02:47:16;;;;;;;1.40;1.30;;;16.60;1.00;;;;;;5066910;28;20253;-56
2022/05/25 02:49:42;;;;;;;1.53;1.43;;;16.60;1.00;;;;;;5053139;28;20236;-58
2022/05/25 02:52:09;;;;;;;1.60;1.47;;;16.40;1.00;;;;;;5049955;28;20656;-57
2022/05/25 02:54:35;;;;;;;1.93;1.73;;;16.40;1.00;;;;;;5050917;28;20184;-57
2022/05/25 02:57:00;;;;;;;2.37;1.50;;;16.40;1.00;;;;;;5059574;28;20989;-57
2022/05/25 02:59:26;;;;;;;3.73;1.70;;;;;;;;;;5050474;28;20453;-56
2022/05/25 03:01:52;;;;;;;1.87;1.70;;;16.50;1.00;;;;;;5049386;28;20194;-58
2022/05/25 03:04:17;;;;;;;1.73;1.63;;;16.50;1.00;;;;;;5049774;28;20450;-58
2022/05/25 03:06:44;;;;;;;3.10;1.63;;;16.50;1.00;;;;;;5052591;28;20215;-57
2022/05/25 03:09:09;;;;;;;2.00;1.70;;;16.50;1.00;;;;;;5050004;28;20204;-57
2022/05/25 03:11:35;;;;;;;3.40;1.60;;;16.50;1.00;;;;;;5048184;28;20470;-57
2022/05/25 03:14:00;;;;;;;2.57;1.60;;;16.50;1.00;;;;;;5048308;28;20200;-57
2022/05/25 03:16:26;;;;;;;4.50;1.73;;;16.40;1.00;;;;;;5052635;28;20184;-56
2022/05/25 03:18:51;;;;;;;1.90;1.70;;;16.40;1.00;;;;;;5049905;28;20227;-57
2022/05/25 03:21:27;;;;;;;1.80;1.67;;;16.50;1.00;;;;;;5049044;28;20192;-57
2022/05/25 03:23:52;;;;;;;1.83;1.67;;;16.40;1.00;;;;;;5055859;28;20194;-58
2022/05/25 03:26:21;;;;;;;2.10;1.80;;;16.50;1.00;;;;;;5049890;28;20462;-55
2022/05/25 03:28:46;;;;;;;1.70;1.53;;;16.50;1.00;;;;;;5048849;28;20188;-57
2022/05/25 03:31:18;;;;;;;2.20;1.60;;;16.50;1.00;;;;;;5049446;28;20534;-56
2022/05/25 03:33:43;;;;;;;4.40;1.83;;;16.50;1.00;;;;;;5049570;28;20200;-57
2022/05/25 03:36:18;;;;;;;2.53;1.87;;;16.50;1.00;;;;;;5049484;28;20481;-57
2022/05/25 03:38:44;;;;;;;5.80;2.03;;;16.60;1.00;;;;;;5033373;28;20192;-58
2022/05/25 03:41:20;;;;;;;3.20;2.00;;;16.70;1.00;;;;;;5031073;28;20453;-56
2022/05/25 03:43:46;;;;;;;4.10;2.07;;;16.80;1.00;;;;;;5030991;28;20191;-57
2022/05/25 03:46:19;;;;;;;5.00;1.80;;;16.90;1.00;;;;;;5044802;28;20473;-58
2022/05/25 03:48:45;;;;;;;1.60;1.43;;;16.90;1.00;;;;;;5050559;28;20186;-57
2022/05/25 03:51:23;;;;;;;1.53;1.43;;;16.90;1.00;;;;;;5052006;28;20426;-57
2022/05/25 03:53:49;;;;;;;2.93;1.83;;;16.90;1.00;;;;;;5047589;28;20180;-56
2022/05/25 03:56:16;;;;;;;2.60;1.47;;;16.90;1.00;;;;;;5050865;28;20477;-59
2022/05/25 03:58:43;;;;;;;4.33;1.87;;;16.90;1.00;;;;;;5049117;28;20450;-56
2022/05/25 04:01:22;;;;;;;1.63;1.53;;;16.90;1.00;;;;;;5064413;28;20627;-58
2022/05/25 04:03:47;;;;;;;2.57;2.00;;;17.00;1.00;;;;;;5051759;28;20438;-60
2022/05/25 04:06:19;;;;;;;3.23;1.70;;;17.10;1.00;;;;;;5051372;28;20524;-59
2022/05/25 04:08:45;;;;;;;4.50;2.10;;;17.20;1.00;;;;;;5048526;28;20192;-57
2022/05/25 04:11:16;;;;;;;2.83;1.83;;;17.20;1.00;;;;;;5046855;28;21239;-59
2022/05/25 04:13:42;;;;;;;2.27;2.07;;;17.20;1.00;;;;;;5049035;28;20183;-57
2022/05/25 04:16:07;;;;;;;1.80;1.70;;;17.20;1.00;;;;;;5048242;28;20535;-58
2022/05/25 04:18:33;;;;;;;3.17;1.80;;;17.20;1.00;;;;;;5053287;28;20274;-59
2022/05/25 04:20:58;;;;;;;2.27;2.03;;;21.60;1.00;;;;;;5066744;28;20191;-58
2022/05/25 04:23:26;;;;;;;4.50;1.77;;;17.10;1.00;;;;;;5047392;28;20192;-60
2022/05/25 04:25:53;;;;;;;2.20;1.90;;;17.20;1.00;;;;;;5047494;28;20502;-59
2022/05/25 04:28:20;;;;;;;3.30;2.03;;;17.30;1.00;;;;;;5049761;28;20470;-58
2022/05/25 04:30:45;;;;;;;3.60;2.37;;;17.40;1.00;;;;;;5051043;28;20413;-57
2022/05/25 04:33:11;;;;;;;4.13;2.00;;;17.40;1.00;;;;;;5046674;28;20448;-58
2022/05/25 04:35:37;;;;;;;3.00;2.20;;;17.50;1.00;;;;;;5049821;28;20186;-59
2022/05/25 04:38:03;;;;;;;2.80;2.20;;;17.50;1.00;;;;;;5053728;28;20258;-58
2022/05/25 04:40:34;;;;;;;3.97;2.20;;;17.60;1.00;;;;;;5060064;28;20188;-57
2022/05/25 04:43:07;;;;;;;2.60;2.40;;;17.60;1.00;;;;;;5046057;28;20450;-59
2022/05/25 04:45:32;;;;;;;2.70;2.47;;;17.70;1.00;;;;;;5047474;28;20445;-59
2022/05/25 04:47:59;;;;;;;3.43;2.53;;;17.80;1.00;;;;;;5048507;28;20475;-57
2022/05/25 04:50:29;;;;;;;2.70;2.33;;;17.90;1.00;;;;;;5053195;28;20246;-56
2022/05/25 04:52:59;;;;;;;4.70;2.17;;;18.10;1.00;;;;;;5051563;28;20539;-56
2022/05/25 04:58:38;;;;;;;2.53;2.33;;;18.50;1.00;;;;;;5046556;28;20484;-56
2022/05/25 05:01:06;;;;;;;3.50;2.60;;;18.50;1.00;;;;;;5045738;28;20456;-56
2022/05/25 05:03:32;;;;;;;3.07;2.47;;;18.50;1.00;;;;;;5047207;28;20757;-55
2022/05/25 05:05:58;;;;;;;3.67;2.10;;;18.60;1.00;;;;;;5048827;28;20424;-58
2022/05/25 05:08:24;;;;;;;4.73;2.80;;;18.60;1.00;;;;;;5048957;28;20442;-56
2022/05/25 05:10:52;;;;;;;2.87;2.43;;;19.00;1.00;;;;;;5054354;28;20527;-56
2022/05/25 05:13:18;;;;;;;4.00;2.03;;;18.80;1.00;;;;;;5047844;28;20442;-56
2022/05/25 05:15:49;;;;;;;3.90;1.73;;;19.00;1.00;;;;;;5049588;28;20818;-56
2022/05/25 05:18:16;;;;;;;4.33;1.73;;;19.10;1.00;;;;;;5047907;28;20432;-56
2022/05/25 05:20:41;;;;;;;5.53;2.13;;;19.50;1.00;;;;;;5049371;28;20504;-57
2022/05/25 05:23:07;;;;;;;2.03;1.67;;;19.70;1.00;;;;;;5065224;28;20481;-56
2022/05/25 05:25:34;;;;;;;3.10;1.90;;;19.90;1.00;;;;;;5050657;28;20711;-56
2022/05/25 05:28:10;;;;;;;4.13;1.87;;;20.00;1.00;;;;;;5047374;28;20358;-57
2022/05/25 05:30:47;;;;;;;4.90;1.57;;;20.10;1.00;;;;;;5044079;28;20865;-56
2022/05/25 05:33:12;;;;;;;2.80;1.77;;;20.30;1.00;;;;;;5047133;28;20454;-53
2022/05/25 05:35:39;;;;;;;2.87;2.20;;;20.30;1.00;;;;;;5061539;28;20445;-56
2022/05/25 05:38:05;;;;;;;5.73;1.50;;;20.20;1.00;;;;;;5053391;28;20723;-56
2022/05/25 05:40:31;;;;;;;3.10;1.80;;;20.20;1.00;;;;;;5054902;28;21308;-56
2022/05/25 05:43:01;;;;;;;3.07;1.73;;;20.10;1.00;;;;;;5050330;28;20439;-54
2022/05/25 05:45:32;;;;;;;4.20;1.87;;;20.20;1.00;;;;;;5049128;28;20568;-55
2022/05/25 05:48:12;;;;;;;2.60;1.70;;;20.00;1.00;;;;;;5070223;28;20472;-56
2022/05/25 05:50:40;;;;;;;5.20;2.00;;;20.00;1.00;;;;;;5053737;28;20454;-56
2022/05/25 05:53:08;;;;;;;2.20;1.80;;;20.00;1.00;;;;;;5049763;28;20417;-55
2022/05/25 05:55:34;;;;;;;2.97;1.90;;;20.10;1.00;;;;;;5047614;28;20887;-57
2022/05/25 05:58:00;;;;;;;3.00;2.10;;;20.00;1.00;;;;;;5045678;28;20450;-56
2022/05/25 06:00:25;;;;;;;2.83;2.10;;;19.90;1.00;;;;;;5051730;28;20441;-55
2022/05/25 06:02:51;;;;;;;3.03;1.90;;;19.90;1.00;;;;;;5052221;28;20196;-52
2022/05/25 06:05:17;;;;;;;5.03;2.37;;;19.80;1.00;;;;;;5049921;28;20676;-55
2022/05/25 06:07:43;;;;;;;3.30;1.97;;;19.80;1.00;;;;;;5052221;28;20649;-56
2022/05/25 06:10:09;;;;;;;2.03;1.83;;;19.60;1.00;;;;;;5053132;28;20184;-57
2022/05/25 06:12:35;;;;;;;1.80;1.70;;;19.40;1.00;;;;;;5054273;28;20435;-56
2022/05/25 06:20:34;;;;;;;3.63;2.13;;;19.20;1.00;;;;;;5054176;28;20573;-56
2022/05/25 06:22:59;;;;;;;3.73;1.67;;;19.00;1.00;;;;;;5052328;28;20527;-55
2022/05/25 06:25:25;;;;;;;4.63;1.80;;;19.10;1.00;;;;;;5053436;28;20434;-55
2022/05/25 06:27:50;;;;;;;5.60;2.17;;;19.10;1.00;;;;;;5050927;28;20215;-56
2022/05/25 06:30:16;;;;;;;5.10;3.03;;;19.20;1.00;;;;;;5052006;28;20743;-54
2022/05/25 06:32:41;;;;;;;2.77;1.70;;;19.30;1.00;;;;;;5050976;28;20206;-54
2022/05/25 06:35:07;;;;;;;2.57;1.80;;;19.30;1.00;;;;;;5052353;28;20262;-54
2022/05/25 06:37:33;;;;;;;2.40;1.67;;;;;;;;;;5053221;28;20275;-54
2022/05/25 06:40:01;;;;;;;5.00;1.50;;;19.40;1.00;;;;;;5050496;28;20975;-53
2022/05/25 06:42:26;;;;;;;3.00;1.70;;;19.50;1.00;;;;;;5054496;28;20538;-55
2022/05/25 06:44:52;;;;;;;3.10;1.70;;;19.50;1.00;;;;;;5046193;28;20573;-56
2022/05/25 06:47:18;;;;;;;11.47;1.70;;;19.40;1.00;;;;;;5055236;28;20687;-53
2022/05/25 06:49:43;;;;;;;2.70;1.33;;;19.40;1.00;;;;;;5058433;28;20257;-54
2022/05/25 06:52:10;;;;;;;6.70;1.73;;;19.30;1.00;;;;;;5052901;28;20400;-57
2022/05/25 06:54:36;;;;;;;3.37;1.50;;;19.30;1.00;;;;;;5051580;28;20196;-55
2022/05/25 06:57:02;;;;;;;7.63;1.90;;;19.40;1.00;;;;;;5052847;28;20524;-53
2022/05/25 06:59:28;;;;;;;2.70;2.37;;;19.30;1.00;;;;;;5056041;28;20428;-54
2022/05/25 07:04:57;;;;;;;2.87;2.60;;;19.40;1.00;;;;;;5025090;28;20201;-53
2022/05/25 07:07:24;;;;;;;4.27;2.83;;;19.30;1.00;;;;;;5044300;28;20911;-55
2022/05/25 07:09:50;;;;;;;6.43;2.43;;;19.20;1.00;;;;;;5061921;28;20533;-56
2022/05/25 07:12:16;;;;;;;2.30;1.80;;;19.30;1.00;;;;;;5071928;28;20467;-55
2022/05/25 07:14:42;;;;;;;3.30;1.80;;;19.20;1.00;;;;;;5073047;28;21026;-56
2022/05/25 07:17:08;;;;;;;2.70;1.50;;;19.20;1.00;;;;;;5072647;28;20180;-57
2022/05/25 07:19:34;;;;;;;2.30;1.47;;;;;;;;;;5071987;28;20640;-57
2022/05/25 07:22:19;;;;;;;1.80;1.50;;;19.40;1.00;;;;;;5071888;28;20433;-54
2022/05/25 07:24:45;;;;;;;3.90;1.73;;;19.20;1.00;;;;;;5072608;28;20436;-55
2022/05/25 07:27:11;;;;;;;6.63;2.03;;;19.10;1.00;;;;;;5072639;28;20841;-54
2022/05/25 07:29:36;;;;;;;2.50;1.50;;;19.20;1.00;;;;;;5061613;28;20654;-55
2022/05/25 07:32:05;;;;;;;1.90;1.73;;;19.20;1.00;;;;;;5046531;28;20202;-55
2022/05/25 07:34:34;;;;;;;2.90;1.93;;;19.30;1.00;;;;;;5052042;28;20638;-55
2022/05/25 07:37:33;;;;;;;3.20;1.90;;;19.30;1.00;;;;;;5052372;28;20822;-55
2022/05/25 07:40:11;;;;;;;6.00;1.80;;;19.10;1.00;;;;;;5048048;28;20442;-54
2022/05/25 07:42:40;;;;;;;2.10;1.90;;;19.10;1.00;;;;;;5051685;28;20493;-54
2022/05/25 07:45:07;;;;;;;3.70;1.50;;;18.90;1.00;;;;;;5051529;28;20501;-54
2022/05/25 07:47:33;;;;;;;8.13;2.57;;;18.80;1.00;;;;;;5051789;28;20466;-54
2022/05/25 07:49:59;;;;;;;2.83;1.63;;;18.70;1.00;;;;;;5052172;28;20496;-54
2022/05/25 07:52:28;;;;;;;3.93;1.80;;;18.80;1.00;;;;;;5064891;28;20441;-53
2022/05/25 07:54:56;;;;;;;2.87;1.90;;;18.80;1.00;;;;;;5067160;28;20176;-54
2022/05/25 07:57:21;;;;;;;2.30;1.57;;;18.70;1.00;;;;;;5052086;28;20438;-53
2022/05/25 07:59:47;;;;;;;4.80;1.77;;;18.80;1.00;;;;;;5051480;28;20521;-54
2022/05/25 08:07:53;;;;;;;5.80;3.63;;;18.90;1.00;;;;;;5051264;28;20472;-56
2022/05/25 08:10:23;;;;;;;2.70;1.80;;;19.00;1.00;;;;;;5064058;28;20412;-54
2022/05/25 08:12:50;;;;;;;3.30;2.20;;;19.00;1.00;;;;;;5071363;28;20584;-54
2022/05/25 08:15:17;;;;;;;8.17;2.10;;;19.00;1.00;;;;;;5071453;28;20441;-54
2022/05/25 08:17:43;;;;;;;3.03;1.80;;;19.00;1.00;;;;;;5071709;28;20412;-55
2022/05/25 08:20:10;;;;;;;4.47;1.77;;;19.10;1.00;;;;;;5070954;28;20437;-56
2022/05/25 08:22:37;;;;;;;1.67;1.57;;;19.20;1.00;;;;;;5071230;28;20910;-56
2022/05/25 08:25:03;;;;;;;3.10;1.90;;;19.20;1.00;;;;;;5070307;28;20442;-54
2022/05/25 08:27:39;;;;;;;2.93;1.70;;;19.50;1.00;;;;;;5071055;28;20473;-53
2022/05/25 08:30:11;;;;;;;1.90;1.70;;;19.50;1.00;;;;;;5068856;28;20437;-54
2022/05/25 08:32:37;;;;;;;2.00;1.67;;;19.60;1.00;;;;;;5050449;28;20604;-54
2022/05/25 08:35:03;;;;;;;2.30;1.70;;;19.50;1.00;;;;;;5060630;28;21358;-55
2022/05/25 08:37:29;;;;;;;2.50;1.70;;;19.80;1.00;;;;;;5070951;28;20664;-54
2022/05/25 08:39:54;;;;;;;1.93;1.53;;;19.80;1.00;;;;;;5071176;28;20430;-54
2022/05/25 08:42:21;;;;;;;2.37;1.53;;;19.60;1.00;;;;;;5070552;28;20506;-56
2022/05/25 08:44:49;;;;;;;3.17;1.90;;;19.80;1.00;;;;;;5067267;28;20224;-56
2022/05/25 08:47:43;;;;;;;1.67;1.40;;;20.00;1.00;;;;;;5050238;28;20528;-54
2022/05/25 08:50:09;;;;;;;1.80;1.57;;;20.30;1.00;;;;;;5047596;28;20443;-57
2022/05/25 08:52:36;;;;;;;1.63;1.20;;;20.40;1.00;;;;;;5050964;28;20441;-54
2022/05/25 08:55:04;;;;;;;4.97;1.20;;;20.60;1.00;;;;;;5050969;28;20499;-55
2022/05/25 08:57:39;;;;;;;3.20;2.63;;;19.90;1.00;;;;;;5049787;28;20415;-55
2022/05/25 09:00:10;;;;;;;2.83;1.67;;;20.80;1.00;;;;;;5050857;28;20430;-55
2022/05/25 09:03:15;;;;;;;2.90;1.50;;;20.80;1.00;;;;;;5054958;28;20420;-54
2022/05/25 09:05:48;;;;;;;4.60;1.40;;;20.80;1.00;;;;;;5070983;28;21002;-54
2022/05/25 09:08:30;;;;;;;2.40;1.53;;;20.60;1.00;;;;;;5070494;28;20869;-55
2022/05/25 09:14:26;;;;;;;5.17;1.57;;;20.90;1.00;;;;;;5059226;28;20600;-54
2022/05/25 09:16:54;;;;;;;6.73;1.70;;;21.10;1.00;;;;;;5047237;28;20429;-55
2022/05/25 09:19:24;;;;;;;1.60;1.37;;;21.10;1.00;;;;;;5045489;28;20463;-52
2022/05/25 09:21:55;;;;;;;3.30;1.60;;;;;;;;;;5048126;28;20432;-53
2022/05/25 09:24:23;;;;;;;1.90;1.67;;;21.30;1.00;;;;;;5047653;28;20930;-54
2022/05/25 09:27:05;;;;;;;1.60;1.47;;;21.40;1.00;;;;;;5048029;28;20474;-53
2022/05/25 09:29:31;;;;;;;2.40;1.50;;;21.60;1.00;;;;;;5047994;28;20448;-57
2022/05/25 09:32:36;;;;;;;2.20;1.40;;;21.70;1.00;;;;;;5048258;28;21008;-54
2022/05/25 09:35:12;;;;;;;2.37;1.50;;;21.90;1.00;;;;;;5050695;28;20450;-55
2022/05/25 09:37:56;;;;;;;2.00;0.90;;;21.90;1.00;;;;;;5071861;28;20408;-53
2022/05/25 09:40:31;;;;;;;2.20;1.40;;;21.90;1.00;;;;;;5072204;28;20440;-55
2022/05/25 09:42:57;;;;;;;4.37;1.20;;;21.90;1.00;;;;;;5072093;28;20456;-55
2022/05/25 09:45:29;;;;;;;2.00;1.50;;;21.90;1.00;;;;;;5073346;28;20483;-55
2022/05/25 09:47:55;;;;;;;2.70;1.43;;;21.90;1.00;;;;;;5053454;28;20452;-55
2022/05/25 09:50:24;;;;;;;1.40;1.30;;;22.10;1.00;;;;;;5054441;28;20438;-54
2022/05/25 09:52:51;;;;;;;3.17;1.20;;;22.20;1.00;;;;;;5053981;28;20434;-54
2022/05/25 09:55:28;;;;;;;1.43;1.20;;;22.30;1.00;;;;;;5054279;28;20796;-52
2022/05/25 09:58:04;;;;;;;7.97;2.20;;;22.50;1.00;;;;;;5053941;28;20914;-54
2022/05/25 10:00:32;;;;;;;3.30;1.10;;;22.70;1.00;;;;;;5054205;28;21078;-55
2022/05/25 10:03:01;;;;;;;2.93;1.30;;;22.90;1.00;;;;;;5053861;28;20473;-53
2022/05/25 10:05:32;;;;;;;2.80;1.27;;;22.90;1.00;;;;;;5054156;28;20433;-55
2022/05/25 10:08:26;;;;;;;1.43;1.33;;;23.00;1.00;;;;;;5053761;28;20787;-53
2022/05/25 10:10:56;;;;;;;1.77;1.00;;;23.00;1.00;;;;;;5049168;28;20434;-57
2022/05/25 10:13:28;;;;;;;2.13;1.07;;;22.90;1.00;;;;;;5053853;28;20405;-56
2022/05/25 10:15:54;;;;;;;2.03;1.50;;;22.90;1.00;;;;;;5053117;28;20455;-56
2022/05/25 10:18:41;;;;;;;1.20;1.10;;;23.20;1.00;;;;;;5053334;28;21019;-54
2022/05/25 10:21:25;;;;;;;3.60;1.30;;;23.50;1.00;;;;;;5064561;28;20187;-54
2022/05/25 10:23:51;;;;;;;3.00;1.17;;;23.50;1.00;;;;;;5073503;28;20466;-56
2022/05/25 10:26:31;;;;;;;2.80;1.37;;;23.60;1.00;;;;;;5073475;28;20457;-54
2022/05/25 10:29:05;;;;;;;1.97;1.10;;;23.70;1.00;;;;;;5073188;28;20440;-56
2022/05/25 10:37:39;;;;;;;2.33;1.60;;;24.20;1.00;;;;;;5053674;28;20415;-55
2022/05/25 10:40:07;;;;;;;1.87;1.30;;;24.10;1.00;;;;;;5052984;28;20449;-55
2022/05/25 10:45:21;;;;;;;1.60;1.10;;;23.90;1.00;;;;;;5052292;28;20499;-56
2022/05/25 10:47:52;;;;;;;1.67;1.03;;;23.70;1.00;;;;;;5052467;28;20533;-54
2022/05/25 10:50:45;;;;;;;2.10;1.10;;;23.20;1.00;;;;;;5063503;28;20496;-57
2022/05/25 10:53:33;;;;;;;2.67;1.00;;;22.90;1.00;;;;;;5072951;28;20444;-53
2022/05/25 10:56:48;;;;;;;2.03;1.13;;;22.70;1.00;;;;;;5073139;28;20445;-54
2022/05/25 10:59:38;;;;;;;2.00;1.50;;;22.50;1.00;;;;;;5072564;28;20457;-55
2022/05/25 11:05:35;;;;;;;3.20;1.40;;;21.70;1.00;;;;;;5035431;28;20473;-55
2022/05/25 11:08:12;;;;;;;1.70;1.30;;;21.70;1.00;;;;;;5048834;28;20957;-54
2022/05/25 11:10:47;;;;;;;1.80;1.00;;;21.80;1.00;;;;;;5052528;28;20405;-55
2022/05/25 11:13:38;;;;;;;1.50;1.10;;;21.90;1.00;;;;;;5052644;28;20812;-56
2022/05/25 11:16:20;;;;;;;1.87;1.00;;;22.00;1.00;;;;;;5051645;28;20509;-54
2022/05/25 11:19:09;;;;;;;1.27;1.17;;;22.00;1.00;;;;;;5065273;28;20445;-54
2022/05/25 11:22:29;;;;;;;3.43;1.20;;;21.90;1.00;;;;;;5072164;28;20668;-55
2022/05/25 11:25:28;;;;;;;1.87;1.10;;;22.00;1.00;;;;;;5048859;28;20921;-53
2022/05/25 11:28:05;;;;;;;1.93;0.90;;;22.40;1.00;;;;;;5072475;28;20489;-57
2022/05/25 11:30:43;;;;;;;3.03;1.50;;;22.20;1.00;;;;;;5071965;28;20429;-54
2022/05/25 11:33:18;;;;;;;1.77;1.23;;;22.30;1.00;;;;;;5067043;28;20411;-53
2022/05/25 11:36:02;;;;;;;1.43;1.07;;;22.90;1.00;;;;;;5051742;28;20505;-52
2022/05/25 11:38:33;;;;;;;1.93;1.20;;;22.90;1.00;;;;;;5051995;28;20430;-56
2022/05/25 11:41:24;;;;;;;1.83;1.40;;;23.20;1.00;;;;;;5057433;28;20883;-57
2022/05/25 11:43:57;;;;;;;1.57;1.13;;;23.20;1.00;;;;;;5050851;28;20397;-55
2022/05/25 11:50:16;;;;;;;3.97;1.20;;;23.50;1.00;;;;;;5021700;28;20420;-56
2022/05/25 11:53:22;;;;;;;1.90;1.20;;;22.90;1.00;;;;;;5049458;28;20451;-56
2022/05/25 11:56:17;;;;;;;2.33;1.50;;;22.80;1.00;;;;;;5046971;28;20408;-55
2022/05/25 11:59:09;;;;;;;2.50;1.40;;;22.70;1.00;;;;;;5049242;28;20493;-52
2022/05/25 12:05:26;;;;;;;1.97;1.20;;;23.40;1.00;;;;;;4989833;28;20455;-56
2022/05/25 12:08:25;;;;;;;1.23;1.13;;;24.10;1.00;;;;;;5049121;28;20477;-54
2022/05/25 12:11:21;;;;;;;3.57;1.80;;;24.10;1.00;;;;;;5049299;28;20405;-56
2022/05/25 12:13:51;;;;;;;1.43;1.20;;;23.80;1.00;;;;;;5048211;28;20489;-57
2022/05/25 12:16:40;;;;;;;1.97;1.30;;;23.90;1.00;;;;;;5048084;28;20434;-55
2022/05/25 12:19:13;;;;;;;1.77;1.10;;;23.40;1.00;;;;;;5049006;28;20443;-54
2022/05/25 12:25:01;;;;;;;2.70;1.87;;;22.80;1.00;;;;;;5039169;28;20536;-54
2022/05/25 12:27:49;;;;;;;2.53;1.50;;;22.90;1.00;;;;;;5051565;28;20440;-55
2022/05/25 12:30:47;;;;;;;2.60;1.30;;;22.90;1.00;;;;;;5051260;28;20429;-56
2022/05/25 12:33:19;;;;;;;2.60;1.27;;;23.10;1.00;;;;;;5046765;28;20413;-54
2022/05/25 12:35:45;;;;;;;2.07;1.30;;;23.30;1.00;;;;;;5051411;28;20437;-55
2022/05/25 12:38:11;;;;;;;5.43;1.40;;;23.30;1.00;;;;;;5061942;28;20908;-54
2022/05/25 12:40:43;;;;;;;2.13;1.00;;;23.10;1.00;;;;;;5071220;28;20434;-54
2022/05/25 12:43:49;;;;;;;1.63;1.20;;;22.90;1.00;;;;;;5054848;28;20407;-55
2022/05/25 12:49:32;;;;;;;2.07;1.20;;;22.90;1.00;;;;;;5050726;28;20514;-56
2022/05/25 12:55:36;;;;;;;2.40;1.27;;;22.70;1.00;;;;;;4986255;28;20496;-55
2022/05/25 12:58:03;;;;;;;5.30;1.23;;;22.80;1.00;;;;;;5051191;28;20409;-56
2022/05/25 13:00:36;;;;;;;1.50;1.40;;;23.00;1.00;;;;;;5046517;28;20545;-53
2022/05/25 13:06:21;;;;;;;1.70;1.20;;;23.00;1.00;;;;;;5041012;28;21038;-57
2022/05/25 13:08:47;;;;;;;1.13;1.00;;;23.00;1.00;;;;;;5050836;28;20421;-53
2022/05/25 13:14:56;;;;;;;1.40;1.13;;;23.10;1.00;;;;;;5008339;28;20241;-55
2022/05/25 13:20:51;;;;;;;2.90;1.10;;;22.90;1.00;;;;;;4974589;28;20446;-54
2022/05/25 13:25:59;;;;;;;3.00;1.30;;;23.40;1.00;;;;;;5052079;28;20412;-54
2022/05/25 13:28:44;;;;;;;2.63;1.37;;;23.20;1.00;;;;;;5068159;28;20211;-56
2022/05/25 13:31:22;;;;;;;1.40;1.20;;;23.10;1.00;;;;;;5049727;28;20450;-54
2022/05/25 13:33:58;;;;;;;2.20;1.20;;;23.30;1.00;;;;;;5048056;28;20961;-55
2022/05/25 13:36:25;;;;;;;5.57;1.93;;;23.30;1.00;;;;;;5047985;28;21015;-54
2022/05/25 13:41:33;;;;;;;1.90;1.30;;;23.40;1.00;;;;;;5048144;28;20408;-57
2022/05/25 13:44:02;;;;;;;2.57;1.10;;;23.40;1.00;;;;;;5063299;28;20878;-53
2022/05/25 13:49:57;;;;;;;2.27;1.00;;;23.40;1.00;;;;;;5047614;28;20423;-55
2022/05/25 13:56:00;;;;;;;3.03;1.10;;;23.70;1.00;;;;;;4978864;28;20432;-56
2022/05/25 13:58:26;;;;;;;2.10;1.00;;;23.70;1.00;;;;;;5050284;28;20456;-55
2022/05/25 14:00:51;;;;;;;1.53;1.00;;;23.70;1.00;;;;;;5048675;28;20412;-56
2022/05/25 14:16:29;;;;;;;1.93;1.20;;;25.00;1.00;;;;;;5033307;28;20438;-54
2022/05/25 14:19:19;;;;;;;2.50;1.03;;;25.90;1.00;;;;;;5049973;28;20848;-54
2022/05/25 14:25:20;;;;;;;1.77;1.00;;;28.30;1.00;;;;;;4985954;28;20460;-57
2022/05/25 14:31:13;;;;;;;1.80;1.00;;;30.30;1.00;;;;;;5031250;28;20429;-55
2022/05/25 14:34:03;;;;;;;2.00;0.70;;;30.20;1.00;;;;;;5052843;28;20450;-55
2022/05/25 14:36:30;;;;;;;1.73;1.10;;;27.30;1.00;;;;;;5053255;28;20409;-54
2022/05/25 14:38:56;;;;;;;1.47;0.87;;;27.20;1.00;;;;;;5053221;28;20458;-55
2022/05/25 14:41:28;;;;;;;2.30;1.00;;;27.30;1.00;;;;;;5054437;28;20474;-55
2022/05/25 14:46:44;;;;;;;1.80;1.27;;;;;;;;;;5067182;28;20588;-54
2022/05/25 14:49:16;;;;;;;4.47;0.90;;;28.90;1.00;;;;;;5072916;28;20523;-56
2022/05/25 14:55:44;;;;;;;1.43;0.90;;;30.50;1.00;;;;;;5003312;28;20415;-54
2022/05/25 15:01:36;;;;;;;1.53;0.87;;;32.00;1.00;;;;;;5043277;28;20528;-56
2022/05/25 15:04:09;;;;;;;1.90;0.97;;;31.60;1.00;;;;;;5072555;28;20533;-55
2022/05/25 15:06:41;;;;;;;1.93;0.97;;;31.50;1.00;;;;;;5072233;28;20533;-54
2022/05/25 15:09:08;;;;;;;1.87;0.80;;;31.90;1.00;;;;;;5072659;28;20940;-54
2022/05/25 15:11:42;;;;;;;1.40;1.00;;;31.80;1.00;;;;;;5072312;28;20495;-56
2022/05/25 15:20:42;;;;;;;1.70;1.10;;;35.20;1.00;;;;;;4944958;28;20591;-55